Terminal Aerodrome Forecast
Issued by NWS Sterling, VA

Home | Current Version | Previous Version | Text Only | Print | Product List | Glossary On
Versions: 1 2 3 4 5 6 7 8 9 10 11 12 13 14 15
827
FTUS41 KLWX 230529
TAFMRB
TAF
KMRB 230529Z 2306/2406 00000KT P6SM SCT250
     FM230900 00000KT 5SM BR BKN250
     FM231200 VRB03KT P6SM BKN025
     FM231500 15007KT P6SM BKN035
     FM232300 14010KT P6SM OVC030
     FM240000 14010KT 5SM SHRA OVC025
     FM240200 15011G18KT 5SM SHRA OVC025 WS020/15040KT=

USA.gov is the U.S. government's official web portal to all federal, state and local government web resources and services.